createdAt,value
2018-03-11T00:01:31.297Z,8.90
2018-03-11T00:03:58.733Z,8.00
2018-03-11T00:06:26.538Z,8.10
2018-03-11T00:08:53.997Z,8.33
2018-03-11T00:11:21.476Z,7.80
2018-03-11T00:13:48.941Z,8.50
2018-03-11T00:16:16.392Z,8.13
2018-03-11T00:18:44.333Z,8.03
2018-03-11T00:21:11.772Z,7.83
2018-03-11T00:23:39.235Z,8.53
2018-03-11T00:26:06.669Z,9.10
2018-03-11T00:28:34.143Z,8.37
2018-03-11T00:31:01.670Z,8.93
2018-03-11T00:33:29.100Z,8.67
2018-03-11T00:35:56.531Z,8.73
2018-03-11T00:38:23.985Z,8.70
2018-03-11T00:40:51.449Z,9.37
2018-03-11T00:43:18.973Z,8.83
2018-03-11T00:45:46.480Z,10.13
2018-03-11T00:48:20.767Z,9.13
2018-03-11T00:51:12.023Z,11.57
2018-03-11T00:53:40.583Z,9.77
2018-03-11T00:56:08.645Z,10.90
2018-03-11T00:58:36.145Z,9.87
2018-03-11T01:01:03.665Z,9.57
2018-03-11T01:03:35.965Z,11.57
2018-03-11T01:08:38.207Z,11.37
2018-03-11T01:11:19.935Z,9.40
2018-03-11T01:13:50.171Z,12.13
2018-03-11T01:16:18.464Z,8.63
2018-03-11T01:18:46.033Z,8.30
2018-03-11T01:21:13.582Z,8.97
2018-03-11T01:23:41.127Z,9.30
2018-03-11T01:26:08.637Z,8.20
2018-03-11T01:28:36.097Z,8.97
2018-03-11T01:31:03.540Z,8.97
2018-03-11T01:33:31.007Z,7.87
2018-03-11T01:35:58.471Z,9.17
2018-03-11T01:38:25.938Z,8.27
2018-03-11T01:40:53.405Z,8.40
2018-03-11T01:43:20.879Z,9.33
2018-03-11T01:45:48.334Z,8.50
2018-03-11T01:48:15.819Z,9.57
2018-03-11T01:50:43.289Z,8.93
2018-03-11T01:53:10.721Z,9.57
2018-03-11T01:55:38.201Z,9.63
2018-03-11T01:58:05.651Z,9.70
2018-03-11T02:00:33.129Z,9.70
2018-03-11T02:03:00.586Z,9.43
2018-03-11T02:05:28.019Z,9.57
2018-03-11T02:07:55.470Z,10.80
2018-03-11T02:10:22.920Z,12.73
2018-03-11T02:12:50.361Z,10.67
2018-03-11T02:15:17.830Z,11.50
2018-03-11T02:17:45.489Z,11.10
2018-03-11T02:20:12.964Z,10.43
2018-03-11T02:22:40.426Z,11.63
2018-03-11T02:25:07.892Z,11.27
2018-03-11T02:27:35.340Z,12.67
2018-03-11T02:30:02.800Z,12.10
2018-03-11T02:32:30.450Z,10.77
2018-03-11T02:34:57.899Z,14.27
2018-03-11T02:37:25.346Z,12.63
2018-03-11T02:39:52.781Z,13.17
2018-03-11T02:42:20.289Z,12.33
2018-03-11T02:44:47.761Z,12.37
2018-03-11T02:47:15.305Z,13.23
2018-03-11T02:49:42.693Z,13.30
2018-03-11T02:52:10.172Z,12.70
2018-03-11T02:54:37.650Z,12.97
2018-03-11T02:57:05.121Z,14.90
2018-03-11T02:59:32.585Z,13.30
2018-03-11T03:02:00.045Z,13.70
2018-03-11T03:04:27.501Z,13.73
2018-03-11T03:06:55.166Z,14.27
2018-03-11T03:09:22.622Z,15.60
2018-03-11T03:11:50.161Z,14.43
2018-03-11T03:14:17.596Z,13.77
2018-03-11T03:16:45.075Z,13.60
2018-03-11T03:19:12.533Z,15.73
2018-03-11T03:21:39.967Z,14.50
2018-03-11T03:24:07.440Z,15.23
2018-03-11T03:26:34.961Z,15.17
2018-03-11T03:29:02.460Z,15.03
2018-03-11T03:31:29.920Z,14.67
2018-03-11T03:33:57.392Z,15.20
2018-03-11T03:36:24.854Z,15.87
2018-03-11T03:38:52.304Z,15.57
2018-03-11T03:41:34.710Z,15.93
2018-03-11T03:44:02.172Z,15.77
2018-03-11T03:46:29.638Z,16.50
2018-03-11T03:48:57.104Z,16.77
2018-03-11T03:51:24.595Z,17.57
2018-03-11T03:53:52.041Z,16.23
2018-03-11T03:56:19.676Z,17.07
2018-03-11T03:58:47.135Z,18.90
2018-03-11T04:01:14.594Z,17.93
2018-03-11T04:03:42.036Z,18.27
2018-03-11T04:06:09.540Z,19.60
2018-03-11T04:08:36.990Z,17.90
2018-03-11T04:11:04.528Z,19.83
2018-03-11T04:13:31.964Z,18.50
2018-03-11T04:15:59.460Z,20.57
2018-03-11T04:18:26.916Z,19.83
2018-03-11T04:20:54.870Z,18.90
2018-03-11T04:23:22.330Z,20.13
2018-03-11T04:25:49.822Z,19.47
2018-03-11T04:28:17.270Z,21.77
2018-03-11T04:30:44.736Z,19.37
2018-03-11T04:33:12.191Z,21.70
2018-03-11T04:35:39.688Z,21.03
2018-03-11T04:38:07.172Z,21.37
2018-03-11T04:40:34.620Z,21.37
2018-03-11T04:43:02.158Z,20.83
2018-03-11T04:45:29.642Z,21.37
2018-03-11T04:47:57.100Z,22.53
2018-03-11T04:50:24.599Z,22.07
2018-03-11T04:52:52.070Z,21.57
2018-03-11T04:55:19.516Z,21.43
2018-03-11T04:57:46.974Z,24.83
2018-03-11T05:00:14.434Z,23.20
2018-03-11T05:02:41.886Z,21.80
2018-03-11T05:05:09.360Z,22.17
2018-03-11T05:07:36.852Z,22.20
2018-03-11T05:10:04.300Z,24.20
2018-03-11T05:12:31.742Z,23.50
2018-03-11T05:14:59.234Z,22.73
2018-03-11T05:17:26.682Z,23.80
2018-03-11T05:19:54.126Z,22.87
2018-03-11T05:22:21.601Z,24.97
2018-03-11T05:24:49.068Z,24.10
2018-03-11T05:27:16.518Z,24.30
2018-03-11T05:29:43.976Z,23.90
2018-03-11T05:32:11.450Z,22.73
2018-03-11T05:34:38.923Z,25.37
2018-03-11T05:37:06.351Z,24.93
2018-03-11T05:39:33.791Z,24.17
2018-03-11T05:42:01.254Z,23.93
2018-03-11T05:44:28.802Z,25.30
2018-03-11T05:46:56.270Z,26.27
2018-03-11T05:49:23.723Z,24.40
2018-03-11T05:51:51.232Z,26.07
2018-03-11T05:54:18.727Z,25.73
2018-03-11T05:56:46.200Z,24.60
2018-03-11T05:59:14.528Z,25.97
2018-03-11T06:01:41.983Z,25.23
2018-03-11T06:04:09.444Z,25.03
2018-03-11T06:06:36.894Z,25.53
2018-03-11T06:09:04.396Z,24.70
2018-03-11T06:11:31.872Z,27.80
2018-03-11T06:13:59.372Z,25.90
2018-03-11T06:16:26.814Z,25.40
2018-03-11T06:18:54.242Z,25.67
2018-03-11T06:21:22.428Z,25.60
2018-03-11T06:23:49.946Z,25.60
2018-03-11T06:26:17.499Z,24.43
2018-03-11T06:28:44.988Z,24.30
2018-03-11T06:31:13.364Z,25.13
2018-03-11T06:33:41.546Z,27.20
2018-03-11T06:36:09.072Z,26.60
2018-03-11T06:38:37.514Z,24.70
2018-03-11T06:41:05.044Z,26.13
2018-03-11T06:43:32.572Z,24.73
2018-03-11T06:46:00.079Z,24.33
2018-03-11T06:51:10.399Z,24.70
2018-03-11T06:53:37.867Z,24.57
2018-03-11T06:56:05.316Z,25.40
2018-03-11T06:58:32.780Z,24.30
2018-03-11T07:01:00.247Z,25.40
2018-03-11T07:03:27.709Z,25.90
2018-03-11T07:05:55.209Z,23.43
2018-03-11T07:08:22.705Z,24.47
2018-03-11T07:10:50.217Z,24.40
2018-03-11T07:13:17.657Z,25.13
2018-03-11T07:15:45.102Z,28.63
2018-03-11T07:18:12.555Z,23.93
2018-03-11T07:20:39.999Z,23.50
2018-03-11T07:23:07.505Z,23.47
2018-03-11T07:25:34.954Z,24.93
2018-03-11T07:28:02.451Z,28.50
2018-03-11T07:30:29.922Z,24.77
2018-03-11T07:32:57.375Z,24.87
2018-03-11T07:35:24.847Z,24.07
2018-03-11T07:37:52.303Z,24.57
2018-03-11T07:40:19.793Z,24.73
2018-03-11T07:42:47.275Z,24.53
2018-03-11T07:45:14.729Z,24.53
2018-03-11T07:47:42.199Z,24.60
2018-03-11T07:50:09.641Z,24.07
2018-03-11T07:52:37.135Z,23.73
2018-03-11T07:55:04.607Z,23.80
2018-03-11T07:57:32.089Z,24.30
2018-03-11T07:59:59.613Z,24.07
2018-03-11T08:02:27.053Z,24.50
2018-03-11T08:04:54.506Z,25.63
2018-03-11T08:07:21.976Z,23.40
2018-03-11T08:09:49.455Z,23.77
2018-03-11T08:12:16.971Z,23.80
2018-03-11T08:14:44.437Z,25.80
2018-03-11T08:17:11.930Z,23.60
2018-03-11T08:19:39.446Z,24.83
2018-03-11T08:22:07.894Z,24.40
2018-03-11T08:24:35.354Z,24.23
2018-03-11T08:27:02.798Z,24.67
2018-03-11T08:29:30.287Z,24.20
2018-03-11T08:31:57.773Z,24.53
2018-03-11T08:34:25.301Z,24.67
2018-03-11T08:36:52.791Z,24.20
2018-03-11T08:39:20.265Z,26.90
2018-03-11T08:41:47.725Z,23.50
2018-03-11T08:44:15.175Z,23.90
2018-03-11T08:46:42.642Z,24.00
2018-03-11T08:49:10.103Z,24.07
2018-03-11T08:51:37.645Z,23.57
2018-03-11T08:54:05.221Z,27.80
2018-03-11T08:56:32.712Z,23.73
2018-03-11T08:59:00.222Z,23.53
2018-03-11T09:01:27.713Z,21.63
2018-03-11T09:03:55.214Z,21.83
2018-03-11T09:06:22.660Z,22.43
2018-03-11T09:08:50.141Z,22.63
2018-03-11T09:11:17.686Z,22.87
2018-03-11T09:13:45.196Z,20.87
2018-03-11T09:16:12.692Z,21.20
2018-03-11T09:18:40.120Z,21.43
2018-03-11T09:21:07.635Z,20.23
2018-03-11T09:23:35.106Z,19.57
2018-03-11T09:26:02.603Z,18.57
2018-03-11T09:28:30.096Z,19.77
2018-03-11T09:30:57.624Z,19.77
2018-03-11T09:33:25.166Z,19.00
2018-03-11T09:35:52.692Z,18.33
2018-03-11T09:38:20.185Z,19.13
2018-03-11T09:40:47.753Z,18.17
2018-03-11T09:43:15.203Z,17.23
2018-03-11T09:45:42.712Z,17.30
2018-03-11T09:48:10.180Z,17.07
2018-03-11T09:50:37.643Z,16.67
2018-03-11T09:53:05.166Z,16.30
2018-03-11T09:55:32.654Z,18.27
2018-03-11T09:58:00.121Z,16.00
2018-03-11T10:00:27.599Z,14.45
2018-03-11T10:02:55.058Z,15.07
2018-03-11T10:05:22.534Z,15.98
2018-03-11T10:07:49.979Z,15.45
2018-03-11T10:10:17.484Z,15.35
2018-03-11T10:12:44.961Z,14.93
2018-03-11T10:15:12.418Z,14.10
2018-03-11T10:17:39.879Z,14.18
2018-03-11T10:20:07.362Z,13.15
2018-03-11T10:22:34.836Z,13.00
2018-03-11T10:25:02.273Z,13.68
2018-03-11T10:27:29.811Z,14.43
2018-03-11T10:29:57.274Z,13.40
2018-03-11T10:32:24.763Z,13.35
2018-03-11T10:34:53.813Z,13.40
2018-03-11T10:37:21.307Z,14.98
2018-03-11T10:39:49.055Z,12.80
2018-03-11T10:42:16.621Z,12.98
2018-03-11T10:44:44.308Z,13.23
2018-03-11T10:47:13.041Z,13.90
2018-03-11T10:49:41.519Z,15.10
2018-03-11T10:52:09.318Z,13.13
2018-03-11T10:54:37.069Z,12.65
2018-03-11T10:57:04.633Z,12.63
2018-03-11T10:59:35.571Z,12.10
2018-03-11T11:02:08.741Z,11.63
2018-03-11T11:04:41.883Z,12.07
2018-03-11T11:07:09.426Z,12.37
2018-03-11T11:09:36.899Z,12.05
2018-03-11T11:12:04.365Z,11.65
2018-03-11T11:14:31.865Z,12.05
2018-03-11T11:16:59.373Z,12.70
2018-03-11T11:19:26.836Z,11.63
2018-03-11T11:21:54.321Z,12.15
2018-03-11T11:24:21.794Z,11.50
2018-03-11T11:26:49.296Z,10.90
2018-03-11T11:29:16.780Z,12.02
2018-03-11T11:31:45.214Z,12.02
2018-03-11T11:34:12.717Z,13.30
2018-03-11T11:36:40.210Z,11.25
2018-03-11T11:39:07.778Z,10.60
2018-03-11T11:41:35.304Z,11.20
2018-03-11T11:44:02.804Z,11.18
2018-03-11T11:46:30.350Z,10.20
2018-03-11T11:48:57.878Z,10.80
2018-03-11T11:51:25.416Z,10.32
2018-03-11T11:53:52.915Z,11.00
2018-03-11T11:56:21.482Z,10.55
2018-03-11T11:58:49.151Z,9.73
2018-03-11T12:01:16.775Z,8.63
2018-03-11T12:03:44.306Z,9.23
2018-03-11T12:06:11.866Z,8.45
2018-03-11T12:08:39.340Z,8.38
2018-03-11T12:11:06.794Z,8.20
2018-03-11T12:13:34.288Z,8.32
2018-03-11T12:16:01.912Z,7.72
2018-03-11T12:18:29.408Z,7.57
2018-03-11T12:20:56.964Z,8.40
2018-03-11T12:23:24.451Z,7.15
2018-03-11T12:25:51.950Z,7.97
2018-03-11T12:28:19.432Z,8.00
2018-03-11T12:30:46.992Z,7.43
2018-03-11T12:33:14.419Z,7.62
2018-03-11T12:35:41.895Z,9.07
2018-03-11T12:38:10.073Z,7.82
2018-03-11T12:40:37.574Z,7.72
2018-03-11T12:43:05.100Z,7.25
2018-03-11T12:45:32.656Z,6.53
2018-03-11T12:48:00.113Z,6.75
2018-03-11T12:50:27.632Z,7.53
2018-03-11T12:52:55.166Z,6.28
2018-03-11T12:55:22.680Z,6.05
2018-03-11T12:57:50.144Z,5.97
2018-03-11T13:00:17.656Z,6.00
2018-03-11T13:02:45.168Z,5.90
2018-03-11T13:05:12.686Z,6.05
2018-03-11T13:07:40.237Z,6.22
2018-03-11T13:10:07.760Z,6.32
2018-03-11T13:12:35.238Z,6.43
2018-03-11T13:15:02.718Z,7.75
2018-03-11T13:17:30.220Z,7.05
2018-03-11T13:20:09.566Z,5.93
2018-03-11T13:22:37.118Z,5.43
2018-03-11T13:25:04.589Z,5.93
2018-03-11T13:27:32.143Z,5.35
2018-03-11T13:29:59.656Z,5.32
2018-03-11T13:32:39.083Z,5.72
2018-03-11T13:35:06.567Z,5.40
2018-03-11T13:37:34.034Z,5.55
2018-03-11T13:43:02.420Z,5.70
2018-03-11T13:45:41.900Z,5.72
2018-03-11T13:48:09.373Z,7.07
2018-03-11T13:50:36.938Z,6.25
2018-03-11T13:56:13.160Z,5.75
2018-03-11T13:58:44.206Z,5.37
2018-03-11T14:01:11.787Z,5.10
2018-03-11T14:03:39.245Z,4.80
2018-03-11T14:06:06.783Z,4.95
2018-03-11T14:08:34.543Z,5.43
2018-03-11T14:11:06.948Z,5.35
2018-03-11T14:13:34.503Z,5.45
2018-03-11T14:16:01.974Z,5.20
2018-03-11T14:18:29.417Z,4.80
2018-03-11T14:20:56.924Z,4.35
2018-03-11T14:23:24.365Z,4.18
2018-03-11T14:25:51.806Z,4.40
2018-03-11T14:28:19.296Z,4.70
2018-03-11T14:30:46.755Z,4.12
2018-03-11T14:33:14.336Z,5.28
2018-03-11T14:35:41.837Z,5.90
2018-03-11T14:38:09.587Z,4.10
2018-03-11T14:40:37.128Z,3.50
2018-03-11T14:43:04.641Z,6.90
2018-03-11T14:45:32.129Z,4.25
2018-03-11T14:48:00.331Z,4.82
2018-03-11T14:50:27.919Z,4.07
2018-03-11T14:52:55.472Z,3.75
2018-03-11T14:55:22.951Z,5.40
2018-03-11T14:57:50.399Z,5.22
2018-03-11T15:00:17.931Z,3.62
2018-03-11T15:02:45.401Z,3.42
2018-03-11T15:05:12.917Z,3.12
2018-03-11T15:07:41.011Z,4.40
2018-03-11T15:10:09.039Z,5.25
2018-03-11T15:12:36.506Z,7.22
2018-03-11T15:15:03.949Z,6.37
2018-03-11T15:17:31.397Z,5.60
2018-03-11T15:19:58.845Z,5.97
2018-03-11T15:22:26.303Z,4.97
2018-03-11T15:24:53.780Z,5.68
2018-03-11T15:27:21.245Z,5.75
2018-03-11T15:29:48.697Z,6.35
2018-03-11T15:32:16.180Z,8.60
2018-03-11T15:34:43.661Z,7.30
2018-03-11T15:37:11.179Z,6.97
2018-03-11T15:39:38.633Z,9.48
2018-03-11T15:42:06.124Z,6.53
2018-03-11T15:44:33.633Z,8.88
2018-03-11T15:47:01.091Z,9.70
2018-03-11T15:49:28.569Z,7.68
2018-03-11T15:51:56.116Z,6.85
2018-03-11T15:54:23.568Z,6.50
2018-03-11T15:56:51.104Z,6.37
2018-03-11T15:59:18.563Z,6.22
2018-03-11T16:01:45.985Z,5.12
2018-03-11T16:04:13.437Z,6.12
2018-03-11T16:06:40.873Z,13.52
2018-03-11T16:09:08.325Z,7.28
2018-03-11T16:11:35.811Z,6.12
2018-03-11T16:14:03.301Z,5.65
2018-03-11T16:16:30.794Z,6.22
2018-03-11T16:18:58.305Z,5.32
2018-03-11T16:21:25.815Z,5.65
2018-03-11T16:23:53.385Z,6.90
2018-03-11T16:26:20.864Z,6.03
2018-03-11T16:28:48.371Z,6.50
2018-03-11T16:31:15.833Z,6.07
2018-03-11T16:33:43.294Z,6.80
2018-03-11T16:36:10.737Z,6.90
2018-03-11T16:38:38.205Z,7.85
2018-03-11T16:41:05.669Z,7.05
2018-03-11T16:43:33.129Z,7.30
2018-03-11T16:46:00.583Z,7.97
2018-03-11T16:48:28.197Z,7.37
2018-03-11T16:50:55.681Z,6.97
2018-03-11T16:53:23.118Z,7.45
2018-03-11T16:55:50.579Z,9.38
2018-03-11T16:58:18.029Z,7.95
2018-03-11T17:00:45.492Z,9.75
2018-03-11T17:03:12.929Z,9.13
2018-03-11T17:05:40.402Z,9.30
2018-03-11T17:08:07.862Z,8.45
2018-03-11T17:10:35.361Z,8.55
2018-03-11T17:13:02.833Z,11.32
2018-03-11T17:15:30.301Z,8.73
2018-03-11T17:17:57.773Z,10.05
2018-03-11T17:20:25.255Z,10.00
2018-03-11T17:22:52.727Z,10.32
2018-03-11T17:25:20.325Z,9.88
2018-03-11T17:27:47.807Z,9.52
2018-03-11T17:30:15.329Z,11.63
2018-03-11T17:32:42.877Z,9.85
2018-03-11T17:35:10.377Z,9.93
2018-03-11T17:37:37.850Z,11.77
2018-03-11T17:40:05.321Z,9.52
2018-03-11T17:42:32.828Z,11.93
2018-03-11T17:45:00.295Z,10.50
2018-03-11T17:47:27.749Z,10.70
2018-03-11T17:49:55.295Z,10.25
2018-03-11T17:52:22.763Z,11.25
2018-03-11T17:54:50.233Z,12.30
2018-03-11T17:57:17.720Z,12.90
2018-03-11T17:59:45.182Z,13.15
2018-03-11T18:02:12.655Z,12.90
2018-03-11T18:04:40.111Z,15.75
2018-03-11T18:07:07.915Z,13.50
2018-03-11T18:09:35.399Z,15.73
2018-03-11T18:12:02.869Z,15.70
2018-03-11T18:14:30.351Z,13.23
2018-03-11T18:16:57.846Z,15.98
2018-03-11T18:19:25.459Z,14.55
2018-03-11T18:21:52.945Z,12.18
2018-03-11T18:24:20.425Z,13.77
2018-03-11T18:26:47.884Z,14.40
2018-03-11T18:29:15.399Z,11.80
2018-03-11T18:31:42.901Z,11.93
2018-03-11T18:34:10.446Z,12.25
2018-03-11T18:36:37.965Z,14.32
2018-03-11T18:39:05.727Z,13.13
2018-03-11T18:41:33.243Z,12.85
2018-03-11T18:44:00.732Z,15.77
2018-03-11T18:46:28.234Z,13.07
2018-03-11T18:48:55.746Z,11.07
2018-03-11T18:51:23.523Z,11.60
2018-03-11T18:53:50.988Z,11.43
2018-03-11T18:56:18.469Z,13.27
2018-03-11T18:58:46.099Z,9.55
2018-03-11T19:01:13.572Z,9.23
2018-03-11T19:03:41.106Z,10.05
2018-03-11T19:06:08.537Z,11.57
2018-03-11T19:08:36.015Z,9.53
2018-03-11T19:11:03.511Z,15.87
2018-03-11T19:13:31.123Z,12.07
2018-03-11T19:15:58.630Z,12.73
2018-03-11T19:18:26.148Z,10.83
2018-03-11T19:20:53.645Z,11.05
2018-03-11T19:23:21.107Z,14.52
2018-03-11T19:25:48.576Z,11.48
2018-03-11T19:28:16.220Z,10.98
2018-03-11T19:30:43.709Z,14.90
2018-03-11T19:33:11.168Z,13.87
2018-03-11T19:35:38.666Z,14.93
2018-03-11T19:38:06.164Z,15.27
2018-03-11T19:40:33.672Z,16.30
2018-03-11T19:43:01.151Z,16.77
2018-03-11T19:45:28.711Z,17.77
2018-03-11T19:47:56.199Z,21.77
2018-03-11T19:50:23.731Z,18.50
2018-03-11T19:52:51.546Z,20.37
2018-03-11T19:55:19.152Z,21.40
2018-03-11T19:57:46.630Z,21.98
2018-03-11T20:00:14.135Z,22.17
2018-03-11T20:02:41.645Z,21.60
2018-03-11T20:05:09.165Z,20.00
2018-03-11T20:07:36.618Z,21.77
2018-03-11T20:10:05.039Z,23.57
2018-03-11T20:12:32.534Z,23.17
2018-03-11T20:15:00.044Z,23.90
2018-03-11T20:17:27.530Z,22.50
2018-03-11T20:19:55.012Z,23.53
2018-03-11T20:22:22.499Z,23.87
2018-03-11T20:24:50.012Z,23.63
2018-03-11T20:27:17.515Z,24.20
2018-03-11T20:29:45.039Z,26.33
2018-03-11T20:32:12.536Z,23.10
2018-03-11T20:34:40.084Z,25.00
2018-03-11T20:37:07.564Z,22.80
2018-03-11T20:39:35.095Z,22.93
2018-03-11T20:42:02.550Z,26.43
2018-03-11T20:44:30.030Z,25.47
2018-03-11T20:46:57.504Z,24.47
2018-03-11T20:49:25.031Z,26.23
2018-03-11T20:51:52.558Z,27.07
2018-03-11T20:54:20.012Z,28.87
2018-03-11T20:56:47.467Z,25.13
2018-03-11T20:59:14.948Z,27.27
2018-03-11T21:01:42.420Z,25.87
2018-03-11T21:04:09.910Z,26.63
2018-03-11T21:06:37.346Z,25.23
2018-03-11T21:09:05.843Z,25.13
2018-03-11T21:11:33.314Z,27.03
2018-03-11T21:14:00.766Z,26.73
2018-03-11T21:16:28.273Z,26.70
2018-03-11T21:18:55.710Z,24.77
2018-03-11T21:21:23.260Z,27.43
2018-03-11T21:23:50.798Z,28.57
2018-03-11T21:26:18.225Z,26.83
2018-03-11T21:28:45.674Z,27.10
2018-03-11T21:31:14.307Z,28.70
2018-03-11T21:33:41.838Z,27.60
2018-03-11T21:36:09.382Z,25.60
2018-03-11T21:38:36.948Z,27.03
2018-03-11T21:41:04.446Z,27.63
2018-03-11T21:43:31.931Z,27.90
2018-03-11T21:45:59.386Z,26.97
2018-03-11T21:48:26.829Z,27.50
2018-03-11T21:50:54.314Z,28.10
2018-03-11T21:53:21.806Z,26.40
2018-03-11T21:55:49.273Z,29.73
2018-03-11T21:58:16.762Z,24.80
2018-03-11T22:00:44.260Z,25.67
2018-03-11T22:03:11.746Z,27.23
2018-03-11T22:05:39.250Z,26.33
2018-03-11T22:08:06.728Z,29.00
2018-03-11T22:10:34.214Z,28.37
2018-03-11T22:13:01.690Z,27.23
2018-03-11T22:15:29.182Z,27.93
2018-03-11T22:17:56.656Z,27.03
2018-03-11T22:20:24.149Z,27.93
2018-03-11T22:22:51.712Z,28.33
2018-03-11T22:25:19.199Z,25.73
2018-03-11T22:27:46.664Z,28.73
2018-03-11T22:30:14.132Z,27.47
2018-03-11T22:32:41.575Z,27.37
2018-03-11T22:35:09.027Z,28.30
2018-03-11T22:37:36.481Z,28.60
2018-03-11T22:40:04.012Z,28.50
2018-03-11T22:42:31.492Z,29.07
2018-03-11T22:44:58.974Z,27.40
2018-03-11T22:47:26.456Z,27.60
2018-03-11T22:49:53.975Z,27.70
2018-03-11T22:52:21.883Z,29.67
2018-03-11T22:54:49.355Z,30.37
2018-03-11T22:57:16.914Z,30.50
2018-03-11T22:59:44.443Z,28.37
2018-03-11T23:02:11.906Z,28.80
2018-03-11T23:04:39.697Z,25.67
2018-03-11T23:07:07.209Z,29.77
2018-03-11T23:09:34.741Z,27.33
2018-03-11T23:12:02.213Z,27.33
2018-03-11T23:14:29.677Z,29.17
2018-03-11T23:16:57.162Z,26.47
2018-03-11T23:19:24.708Z,25.87
2018-03-11T23:22:01.862Z,29.13
2018-03-11T23:24:29.315Z,28.00
2018-03-11T23:26:56.767Z,27.33
2018-03-11T23:29:24.250Z,28.07
2018-03-11T23:31:51.735Z,27.03
2018-03-11T23:34:19.202Z,26.67
2018-03-11T23:36:46.710Z,26.33
2018-03-11T23:39:14.184Z,23.90
2018-03-11T23:41:41.666Z,28.70
2018-03-11T23:44:09.173Z,26.67
2018-03-11T23:46:36.674Z,29.43
2018-03-11T23:49:04.173Z,25.67
2018-03-11T23:51:31.704Z,28.33
2018-03-11T23:53:59.161Z,25.60
2018-03-11T23:56:26.615Z,26.10
2018-03-11T23:58:54.066Z,26.23
